sensor_id;sensor_type;location;lat;lon;timestamp;P1;durP1;ratioP1;P2;durP2;ratioP2
63882;SDS011;50047;50.596;30.466;2023-04-06T00:01:40;10.70;;;5.70;;
63882;SDS011;50047;50.596;30.466;2023-04-06T00:04:10;8.80;;;5.60;;
63882;SDS011;50047;50.596;30.466;2023-04-06T00:06:39;10.70;;;6.60;;
63882;SDS011;50047;50.596;30.466;2023-04-06T00:09:09;5.90;;;3.60;;
63882;SDS011;50047;50.596;30.466;2023-04-06T00:11:38;8.70;;;4.70;;
63882;SDS011;50047;50.596;30.466;2023-04-06T00:14:07;8.20;;;5.10;;
63882;SDS011;50047;50.596;30.466;2023-04-06T00:16:36;8.00;;;5.30;;
63882;SDS011;50047;50.596;30.466;2023-04-06T00:19:05;9.10;;;5.70;;
63882;SDS011;50047;50.596;30.466;2023-04-06T00:21:34;9.40;;;5.80;;
63882;SDS011;50047;50.596;30.466;2023-04-06T00:24:02;5.50;;;3.60;;
63882;SDS011;50047;50.596;30.466;2023-04-06T00:26:32;7.50;;;4.10;;
63882;SDS011;50047;50.596;30.466;2023-04-06T00:29:00;7.50;;;4.50;;
63882;SDS011;50047;50.596;30.466;2023-04-06T00:31:29;8.00;;;5.10;;
63882;SDS011;50047;50.596;30.466;2023-04-06T00:33:58;11.00;;;5.70;;
63882;SDS011;50047;50.596;30.466;2023-04-06T00:36:29;7.70;;;5.20;;
63882;SDS011;50047;50.596;30.466;2023-04-06T00:38:58;5.60;;;3.30;;
63882;SDS011;50047;50.596;30.466;2023-04-06T00:41:26;8.20;;;4.50;;
63882;SDS011;50047;50.596;30.466;2023-04-06T00:43:55;7.30;;;4.60;;
63882;SDS011;50047;50.596;30.466;2023-04-06T00:46:25;9.00;;;5.20;;
63882;SDS011;50047;50.596;30.466;2023-04-06T00:48:53;9.30;;;5.10;;
63882;SDS011;50047;50.596;30.466;2023-04-06T00:51:22;8.00;;;5.20;;
63882;SDS011;50047;50.596;30.466;2023-04-06T00:53:50;6.00;;;3.50;;
63882;SDS011;50047;50.596;30.466;2023-04-06T00:56:19;7.00;;;4.70;;
63882;SDS011;50047;50.596;30.466;2023-04-06T00:58:51;7.80;;;5.00;;
63882;SDS011;50047;50.596;30.466;2023-04-06T01:03:56;8.40;;;5.00;;
63882;SDS011;50047;50.596;30.466;2023-04-06T01:06:26;8.10;;;5.30;;
63882;SDS011;50047;50.596;30.466;2023-04-06T01:08:59;8.90;;;5.60;;
63882;SDS011;50047;50.596;30.466;2023-04-06T01:11:28;5.60;;;3.70;;
63882;SDS011;50047;50.596;30.466;2023-04-06T01:13:57;8.80;;;4.70;;
63882;SDS011;50047;50.596;30.466;2023-04-06T01:16:40;8.00;;;4.50;;
63882;SDS011;50047;50.596;30.466;2023-04-06T01:19:18;7.70;;;4.90;;
63882;SDS011;50047;50.596;30.466;2023-04-06T01:21:50;9.00;;;5.60;;
63882;SDS011;50047;50.596;30.466;2023-04-06T01:24:24;7.70;;;4.80;;
63882;SDS011;50047;50.596;30.466;2023-04-06T01:27:15;6.90;;;3.90;;
63882;SDS011;50047;50.596;30.466;2023-04-06T01:30:06;6.90;;;4.50;;
63882;SDS011;50047;50.596;30.466;2023-04-06T01:35:57;6.40;;;4.70;;
63882;SDS011;50047;50.596;30.466;2023-04-06T01:38:26;9.70;;;5.50;;
63882;SDS011;50047;50.596;30.466;2023-04-06T01:40:55;9.90;;;5.90;;
63882;SDS011;50047;50.596;30.466;2023-04-06T01:43:26;8.40;;;5.20;;
63882;SDS011;50047;50.596;30.466;2023-04-06T01:46:09;6.80;;;3.60;;
63882;SDS011;50047;50.596;30.466;2023-04-06T01:48:40;6.90;;;4.20;;
63882;SDS011;50047;50.596;30.466;2023-04-06T01:51:19;8.30;;;5.40;;
63882;SDS011;50047;50.596;30.466;2023-04-06T01:53:52;9.00;;;5.30;;
63882;SDS011;50047;50.596;30.466;2023-04-06T01:56:22;9.90;;;5.70;;
63882;SDS011;50047;50.596;30.466;2023-04-06T01:59:05;13.10;;;6.40;;
63882;SDS011;50047;50.596;30.466;2023-04-06T02:01:39;8.70;;;5.70;;
63882;SDS011;50047;50.596;30.466;2023-04-06T02:04:09;7.00;;;4.20;;
63882;SDS011;50047;50.596;30.466;2023-04-06T02:06:37;7.10;;;5.00;;
63882;SDS011;50047;50.596;30.466;2023-04-06T02:09:07;9.10;;;5.20;;
63882;SDS011;50047;50.596;30.466;2023-04-06T02:11:36;9.40;;;5.60;;
63882;SDS011;50047;50.596;30.466;2023-04-06T02:14:06;10.10;;;5.60;;
63882;SDS011;50047;50.596;30.466;2023-04-06T02:16:47;9.00;;;5.80;;
63882;SDS011;50047;50.596;30.466;2023-04-06T02:19:16;8.10;;;5.60;;
63882;SDS011;50047;50.596;30.466;2023-04-06T02:21:44;8.30;;;3.40;;
63882;SDS011;50047;50.596;30.466;2023-04-06T02:24:13;13.00;;;4.60;;
63882;SDS011;50047;50.596;30.466;2023-04-06T02:26:41;10.00;;;5.90;;
63882;SDS011;50047;50.596;30.466;2023-04-06T02:29:10;10.10;;;5.90;;
63882;SDS011;50047;50.596;30.466;2023-04-06T02:31:40;8.40;;;5.70;;
63882;SDS011;50047;50.596;30.466;2023-04-06T02:34:09;10.80;;;6.00;;
63882;SDS011;50047;50.596;30.466;2023-04-06T02:36:48;11.10;;;6.50;;
63882;SDS011;50047;50.596;30.466;2023-04-06T02:39:17;7.30;;;4.30;;
63882;SDS011;50047;50.596;30.466;2023-04-06T02:41:45;9.00;;;4.90;;
63882;SDS011;50047;50.596;30.466;2023-04-06T02:44:15;11.50;;;6.00;;
63882;SDS011;50047;50.596;30.466;2023-04-06T02:46:44;10.20;;;5.90;;
63882;SDS011;50047;50.596;30.466;2023-04-06T02:49:14;8.20;;;5.80;;
63882;SDS011;50047;50.596;30.466;2023-04-06T02:51:43;10.30;;;6.30;;
63882;SDS011;50047;50.596;30.466;2023-04-06T02:54:18;12.10;;;6.80;;
63882;SDS011;50047;50.596;30.466;2023-04-06T02:56:46;7.50;;;4.60;;
63882;SDS011;50047;50.596;30.466;2023-04-06T02:59:15;8.00;;;5.00;;
63882;SDS011;50047;50.596;30.466;2023-04-06T03:01:52;9.80;;;5.90;;
63882;SDS011;50047;50.596;30.466;2023-04-06T03:04:21;10.70;;;6.30;;
63882;SDS011;50047;50.596;30.466;2023-04-06T03:06:53;8.70;;;5.80;;
63882;SDS011;50047;50.596;30.466;2023-04-06T03:09:36;9.20;;;6.10;;
63882;SDS011;50047;50.596;30.466;2023-04-06T03:12:06;10.70;;;6.10;;
63882;SDS011;50047;50.596;30.466;2023-04-06T03:14:47;6.70;;;4.20;;
63882;SDS011;50047;50.596;30.466;2023-04-06T03:17:15;7.80;;;5.00;;
63882;SDS011;50047;50.596;30.466;2023-04-06T03:19:45;9.30;;;5.50;;
63882;SDS011;50047;50.596;30.466;2023-04-06T03:22:14;11.70;;;6.70;;
63882;SDS011;50047;50.596;30.466;2023-04-06T03:24:43;11.90;;;6.40;;
63882;SDS011;50047;50.596;30.466;2023-04-06T03:27:12;10.10;;;5.90;;
63882;SDS011;50047;50.596;30.466;2023-04-06T03:29:49;11.00;;;5.70;;
63882;SDS011;50047;50.596;30.466;2023-04-06T03:32:23;9.30;;;5.20;;
63882;SDS011;50047;50.596;30.466;2023-04-06T03:34:51;11.10;;;5.50;;
63882;SDS011;50047;50.596;30.466;2023-04-06T03:37:20;10.00;;;6.10;;
63882;SDS011;50047;50.596;30.466;2023-04-06T03:39:52;11.30;;;6.50;;
63882;SDS011;50047;50.596;30.466;2023-04-06T03:42:22;10.50;;;6.30;;
63882;SDS011;50047;50.596;30.466;2023-04-06T03:45:02;10.20;;;6.40;;
63882;SDS011;50047;50.596;30.466;2023-04-06T03:47:32;10.70;;;4.80;;
63882;SDS011;50047;50.596;30.466;2023-04-06T03:50:04;7.60;;;4.60;;
63882;SDS011;50047;50.596;30.466;2023-04-06T03:52:34;8.90;;;4.90;;
63882;SDS011;50047;50.596;30.466;2023-04-06T03:55:04;10.90;;;6.10;;
63882;SDS011;50047;50.596;30.466;2023-04-06T03:57:33;9.90;;;5.70;;
63882;SDS011;50047;50.596;30.466;2023-04-06T04:00:09;9.80;;;6.30;;
63882;SDS011;50047;50.596;30.466;2023-04-06T04:02:41;10.30;;;6.10;;
63882;SDS011;50047;50.596;30.466;2023-04-06T04:05:09;6.90;;;4.30;;
63882;SDS011;50047;50.596;30.466;2023-04-06T04:07:43;7.90;;;5.00;;
63882;SDS011;50047;50.596;30.466;2023-04-06T04:10:13;12.20;;;6.20;;
63882;SDS011;50047;50.596;30.466;2023-04-06T04:12:42;12.30;;;6.60;;
63882;SDS011;50047;50.596;30.466;2023-04-06T04:15:16;9.10;;;5.70;;
63882;SDS011;50047;50.596;30.466;2023-04-06T04:18:00;9.40;;;5.80;;
63882;SDS011;50047;50.596;30.466;2023-04-06T04:20:29;7.50;;;5.50;;
63882;SDS011;50047;50.596;30.466;2023-04-06T04:23:05;6.40;;;4.00;;
63882;SDS011;50047;50.596;30.466;2023-04-06T04:25:34;10.00;;;5.00;;
63882;SDS011;50047;50.596;30.466;2023-04-06T04:28:02;9.30;;;6.00;;
63882;SDS011;50047;50.596;30.466;2023-04-06T04:30:31;9.50;;;5.40;;
63882;SDS011;50047;50.596;30.466;2023-04-06T04:33:00;9.80;;;5.90;;
63882;SDS011;50047;50.596;30.466;2023-04-06T04:35:29;11.90;;;6.00;;
63882;SDS011;50047;50.596;30.466;2023-04-06T04:37:59;8.80;;;5.80;;
63882;SDS011;50047;50.596;30.466;2023-04-06T04:40:28;7.50;;;4.30;;
63882;SDS011;50047;50.596;30.466;2023-04-06T04:43:10;9.40;;;5.50;;
63882;SDS011;50047;50.596;30.466;2023-04-06T04:45:39;9.50;;;5.50;;
63882;SDS011;50047;50.596;30.466;2023-04-06T04:48:39;9.60;;;5.50;;
63882;SDS011;50047;50.596;30.466;2023-04-06T04:51:08;8.80;;;5.50;;
63882;SDS011;50047;50.596;30.466;2023-04-06T04:54:03;10.80;;;6.30;;
63882;SDS011;50047;50.596;30.466;2023-04-06T04:56:37;7.20;;;4.30;;
63882;SDS011;50047;50.596;30.466;2023-04-06T04:59:33;9.50;;;5.40;;
63882;SDS011;50047;50.596;30.466;2023-04-06T05:02:09;14.20;;;5.50;;
63882;SDS011;50047;50.596;30.466;2023-04-06T05:04:48;11.30;;;5.90;;
63882;SDS011;50047;50.596;30.466;2023-04-06T05:07:20;11.10;;;5.70;;
63882;SDS011;50047;50.596;30.466;2023-04-06T05:09:53;9.60;;;6.10;;
63882;SDS011;50047;50.596;30.466;2023-04-06T05:12:23;6.00;;;3.90;;
63882;SDS011;50047;50.596;30.466;2023-04-06T05:15:08;9.00;;;5.20;;
63882;SDS011;50047;50.596;30.466;2023-04-06T05:17:37;9.90;;;5.50;;
63882;SDS011;50047;50.596;30.466;2023-04-06T05:20:07;13.10;;;6.00;;
63882;SDS011;50047;50.596;30.466;2023-04-06T05:22:43;9.20;;;5.10;;
63882;SDS011;50047;50.596;30.466;2023-04-06T05:25:12;9.50;;;6.10;;
63882;SDS011;50047;50.596;30.466;2023-04-06T05:27:42;4.40;;;3.00;;
63882;SDS011;50047;50.596;30.466;2023-04-06T05:30:25;8.60;;;4.80;;
63882;SDS011;50047;50.596;30.466;2023-04-06T05:32:53;9.90;;;5.40;;
63882;SDS011;50047;50.596;30.466;2023-04-06T05:35:24;8.00;;;5.00;;
63882;SDS011;50047;50.596;30.466;2023-04-06T05:37:55;9.00;;;5.80;;
63882;SDS011;50047;50.596;30.466;2023-04-06T05:40:25;11.10;;;5.90;;
63882;SDS011;50047;50.596;30.466;2023-04-06T05:42:54;7.00;;;3.70;;
63882;SDS011;50047;50.596;30.466;2023-04-06T05:45:23;10.40;;;5.20;;
63882;SDS011;50047;50.596;30.466;2023-04-06T05:47:54;8.50;;;5.10;;
63882;SDS011;50047;50.596;30.466;2023-04-06T05:50:26;8.90;;;5.90;;
63882;SDS011;50047;50.596;30.466;2023-04-06T05:52:54;8.40;;;5.30;;
63882;SDS011;50047;50.596;30.466;2023-04-06T05:55:24;9.60;;;5.30;;
63882;SDS011;50047;50.596;30.466;2023-04-06T05:58:01;7.60;;;3.10;;
63882;SDS011;50047;50.596;30.466;2023-04-06T06:00:30;7.20;;;4.40;;
63882;SDS011;50047;50.596;30.466;2023-04-06T06:03:02;10.50;;;5.60;;
63882;SDS011;50047;50.596;30.466;2023-04-06T06:05:35;8.60;;;5.00;;
63882;SDS011;50047;50.596;30.466;2023-04-06T06:08:10;10.20;;;5.50;;
63882;SDS011;50047;50.596;30.466;2023-04-06T06:10:38;8.60;;;5.50;;
63882;SDS011;50047;50.596;30.466;2023-04-06T06:13:09;8.20;;;5.40;;
63882;SDS011;50047;50.596;30.466;2023-04-06T06:15:39;5.80;;;3.90;;
63882;SDS011;50047;50.596;30.466;2023-04-06T06:18:08;9.60;;;5.10;;
63882;SDS011;50047;50.596;30.466;2023-04-06T06:20:38;9.50;;;5.90;;
63882;SDS011;50047;50.596;30.466;2023-04-06T06:23:07;8.50;;;5.80;;
63882;SDS011;50047;50.596;30.466;2023-04-06T06:25:37;7.60;;;5.40;;
63882;SDS011;50047;50.596;30.466;2023-04-06T06:28:06;10.50;;;5.60;;
63882;SDS011;50047;50.596;30.466;2023-04-06T06:30:55;8.80;;;5.60;;
63882;SDS011;50047;50.596;30.466;2023-04-06T06:33:25;9.00;;;4.20;;
63882;SDS011;50047;50.596;30.466;2023-04-06T06:35:56;8.20;;;4.40;;
63882;SDS011;50047;50.596;30.466;2023-04-06T06:38:25;7.30;;;5.10;;
63882;SDS011;50047;50.596;30.466;2023-04-06T06:40:56;8.90;;;5.60;;
63882;SDS011;50047;50.596;30.466;2023-04-06T06:43:27;8.00;;;4.70;;
63882;SDS011;50047;50.596;30.466;2023-04-06T06:46:00;7.60;;;5.30;;
63882;SDS011;50047;50.596;30.466;2023-04-06T06:48:29;9.00;;;5.30;;
63882;SDS011;50047;50.596;30.466;2023-04-06T06:50:57;9.30;;;5.60;;
63882;SDS011;50047;50.596;30.466;2023-04-06T06:53:27;11.90;;;5.40;;
63882;SDS011;50047;50.596;30.466;2023-04-06T06:55:56;8.60;;;3.60;;
63882;SDS011;50047;50.596;30.466;2023-04-06T06:58:24;13.50;;;4.60;;
63882;SDS011;50047;50.596;30.466;2023-04-06T07:00:59;7.70;;;4.90;;
63882;SDS011;50047;50.596;30.466;2023-04-06T07:03:29;10.90;;;5.10;;
63882;SDS011;50047;50.596;30.466;2023-04-06T07:06:00;9.30;;;5.40;;
63882;SDS011;50047;50.596;30.466;2023-04-06T07:08:29;14.00;;;5.70;;
63882;SDS011;50047;50.596;30.466;2023-04-06T07:10:57;10.80;;;5.40;;
63882;SDS011;50047;50.596;30.466;2023-04-06T07:13:26;9.50;;;5.20;;
63882;SDS011;50047;50.596;30.466;2023-04-06T07:15:58;8.30;;;5.00;;
63882;SDS011;50047;50.596;30.466;2023-04-06T07:18:28;8.10;;;5.30;;
63882;SDS011;50047;50.596;30.466;2023-04-06T07:20:57;12.30;;;5.30;;
63882;SDS011;50047;50.596;30.466;2023-04-06T07:23:25;8.70;;;5.50;;
63882;SDS011;50047;50.596;30.466;2023-04-06T07:25:54;12.20;;;5.60;;
63882;SDS011;50047;50.596;30.466;2023-04-06T07:28:23;10.30;;;5.20;;
63882;SDS011;50047;50.596;30.466;2023-04-06T07:30:52;9.00;;;4.20;;
63882;SDS011;50047;50.596;30.466;2023-04-06T07:33:30;11.50;;;4.50;;
63882;SDS011;50047;50.596;30.466;2023-04-06T07:35:59;7.90;;;4.20;;
63882;SDS011;50047;50.596;30.466;2023-04-06T07:38:28;8.60;;;5.50;;
63882;SDS011;50047;50.596;30.466;2023-04-06T07:40:57;9.50;;;4.90;;
63882;SDS011;50047;50.596;30.466;2023-04-06T07:43:26;9.50;;;5.30;;
63882;SDS011;50047;50.596;30.466;2023-04-06T07:45:56;8.40;;;4.70;;
63882;SDS011;50047;50.596;30.466;2023-04-06T07:48:34;10.40;;;5.00;;
63882;SDS011;50047;50.596;30.466;2023-04-06T07:51:06;9.10;;;4.70;;
63882;SDS011;50047;50.596;30.466;2023-04-06T07:53:38;9.20;;;5.00;;
63882;SDS011;50047;50.596;30.466;2023-04-06T07:56:07;5.90;;;3.70;;
63882;SDS011;50047;50.596;30.466;2023-04-06T07:58:36;9.10;;;4.30;;
63882;SDS011;50047;50.596;30.466;2023-04-06T08:01:07;7.90;;;5.00;;
63882;SDS011;50047;50.596;30.466;2023-04-06T08:03:37;9.50;;;4.70;;
63882;SDS011;50047;50.596;30.466;2023-04-06T08:06:06;13.50;;;5.30;;
63882;SDS011;50047;50.596;30.466;2023-04-06T08:08:39;10.70;;;5.30;;
63882;SDS011;50047;50.596;30.466;2023-04-06T08:11:08;11.30;;;4.90;;
63882;SDS011;50047;50.596;30.466;2023-04-06T08:13:38;9.40;;;5.00;;
63882;SDS011;50047;50.596;30.466;2023-04-06T08:16:07;8.50;;;3.50;;
63882;SDS011;50047;50.596;30.466;2023-04-06T08:18:37;7.90;;;4.30;;
63882;SDS011;50047;50.596;30.466;2023-04-06T08:21:05;12.80;;;4.80;;
63882;SDS011;50047;50.596;30.466;2023-04-06T08:23:34;11.90;;;5.20;;
63882;SDS011;50047;50.596;30.466;2023-04-06T08:26:03;12.10;;;5.50;;
63882;SDS011;50047;50.596;30.466;2023-04-06T08:28:35;8.40;;;5.00;;
63882;SDS011;50047;50.596;30.466;2023-04-06T08:31:06;12.40;;;5.60;;
63882;SDS011;50047;50.596;30.466;2023-04-06T08:33:36;11.50;;;5.00;;
63882;SDS011;50047;50.596;30.466;2023-04-06T08:36:14;11.90;;;6.10;;
63882;SDS011;50047;50.596;30.466;2023-04-06T08:38:43;11.40;;;5.80;;
63882;SDS011;50047;50.596;30.466;2023-04-06T08:41:13;11.80;;;4.70;;
63882;SDS011;50047;50.596;30.466;2023-04-06T08:46:29;11.00;;;4.80;;
63882;SDS011;50047;50.596;30.466;2023-04-06T08:48:59;9.70;;;5.30;;
63882;SDS011;50047;50.596;30.466;2023-04-06T08:51:30;10.90;;;4.90;;
63882;SDS011;50047;50.596;30.466;2023-04-06T08:54:02;13.60;;;5.10;;
63882;SDS011;50047;50.596;30.466;2023-04-06T08:56:32;12.40;;;5.40;;
63882;SDS011;50047;50.596;30.466;2023-04-06T08:59:05;7.90;;;5.00;;
63882;SDS011;50047;50.596;30.466;2023-04-06T09:01:39;8.20;;;4.60;;
63882;SDS011;50047;50.596;30.466;2023-04-06T09:04:12;11.20;;;5.70;;
63882;SDS011;50047;50.596;30.466;2023-04-06T09:06:42;9.30;;;4.70;;
63882;SDS011;50047;50.596;30.466;2023-04-06T09:09:11;8.30;;;5.00;;
63882;SDS011;50047;50.596;30.466;2023-04-06T09:14:54;9.00;;;5.40;;
63882;SDS011;50047;50.596;30.466;2023-04-06T09:17:25;9.30;;;5.10;;
63882;SDS011;50047;50.596;30.466;2023-04-06T09:19:55;21.20;;;4.50;;
63882;SDS011;50047;50.596;30.466;2023-04-06T09:22:34;10.10;;;5.10;;
63882;SDS011;50047;50.596;30.466;2023-04-06T09:25:04;10.90;;;4.50;;
63882;SDS011;50047;50.596;30.466;2023-04-06T09:27:35;6.40;;;3.80;;
63882;SDS011;50047;50.596;30.466;2023-04-06T09:30:08;8.20;;;4.30;;
63882;SDS011;50047;50.596;30.466;2023-04-06T09:35:21;9.00;;;3.50;;
63882;SDS011;50047;50.596;30.466;2023-04-06T09:37:51;5.70;;;3.00;;
63882;SDS011;50047;50.596;30.466;2023-04-06T09:40:20;5.60;;;3.10;;
63882;SDS011;50047;50.596;30.466;2023-04-06T09:42:50;5.10;;;3.30;;
63882;SDS011;50047;50.596;30.466;2023-04-06T09:45:25;7.00;;;3.30;;
63882;SDS011;50047;50.596;30.466;2023-04-06T09:47:58;8.00;;;2.80;;
63882;SDS011;50047;50.596;30.466;2023-04-06T09:50:30;6.30;;;2.60;;
63882;SDS011;50047;50.596;30.466;2023-04-06T09:53:02;8.20;;;3.10;;
63882;SDS011;50047;50.596;30.466;2023-04-06T09:55:40;5.10;;;2.70;;
63882;SDS011;50047;50.596;30.466;2023-04-06T09:58:12;6.00;;;2.40;;
63882;SDS011;50047;50.596;30.466;2023-04-06T10:00:48;6.40;;;2.70;;
63882;SDS011;50047;50.596;30.466;2023-04-06T10:06:22;9.20;;;3.70;;
63882;SDS011;50047;50.596;30.466;2023-04-06T10:08:54;5.80;;;2.60;;
63882;SDS011;50047;50.596;30.466;2023-04-06T10:11:27;5.40;;;2.70;;
63882;SDS011;50047;50.596;30.466;2023-04-06T10:13:57;8.50;;;3.60;;
63882;SDS011;50047;50.596;30.466;2023-04-06T10:16:25;7.70;;;3.80;;
63882;SDS011;50047;50.596;30.466;2023-04-06T10:19:02;9.20;;;3.70;;
63882;SDS011;50047;50.596;30.466;2023-04-06T10:21:39;8.80;;;3.30;;
63882;SDS011;50047;50.596;30.466;2023-04-06T10:24:12;8.10;;;3.50;;
63882;SDS011;50047;50.596;30.466;2023-04-06T10:26:42;10.10;;;3.40;;
63882;SDS011;50047;50.596;30.466;2023-04-06T10:29:10;14.70;;;4.30;;
63882;SDS011;50047;50.596;30.466;2023-04-06T10:31:41;7.90;;;2.70;;
63882;SDS011;50047;50.596;30.466;2023-04-06T10:34:11;7.80;;;3.30;;
63882;SDS011;50047;50.596;30.466;2023-04-06T10:36:42;16.80;;;3.50;;
63882;SDS011;50047;50.596;30.466;2023-04-06T10:39:11;10.00;;;3.40;;
63882;SDS011;50047;50.596;30.466;2023-04-06T10:41:43;10.90;;;3.30;;
63882;SDS011;50047;50.596;30.466;2023-04-06T10:44:19;4.50;;;2.60;;
63882;SDS011;50047;50.596;30.466;2023-04-06T10:46:56;5.30;;;3.20;;
63882;SDS011;50047;50.596;30.466;2023-04-06T10:49:30;8.10;;;3.20;;
63882;SDS011;50047;50.596;30.466;2023-04-06T10:51:59;7.30;;;3.30;;
63882;SDS011;50047;50.596;30.466;2023-04-06T10:54:28;6.50;;;2.30;;
63882;SDS011;50047;50.596;30.466;2023-04-06T10:56:57;5.50;;;2.50;;
63882;SDS011;50047;50.596;30.466;2023-04-06T10:59:28;6.60;;;2.70;;
63882;SDS011;50047;50.596;30.466;2023-04-06T11:01:56;7.10;;;3.20;;
63882;SDS011;50047;50.596;30.466;2023-04-06T11:04:25;4.70;;;1.90;;
63882;SDS011;50047;50.596;30.466;2023-04-06T11:06:56;6.70;;;2.30;;
63882;SDS011;50047;50.596;30.466;2023-04-06T11:09:26;7.10;;;2.80;;
63882;SDS011;50047;50.596;30.466;2023-04-06T11:11:56;6.70;;;2.70;;
63882;SDS011;50047;50.596;30.466;2023-04-06T11:14:25;11.10;;;3.20;;
63882;SDS011;50047;50.596;30.466;2023-04-06T11:16:55;7.00;;;2.50;;
63882;SDS011;50047;50.596;30.466;2023-04-06T11:19:24;6.10;;;2.30;;
63882;SDS011;50047;50.596;30.466;2023-04-06T11:21:53;6.70;;;2.80;;
63882;SDS011;50047;50.596;30.466;2023-04-06T11:24:23;7.20;;;3.10;;
63882;SDS011;50047;50.596;30.466;2023-04-06T11:26:57;9.30;;;3.40;;
63882;SDS011;50047;50.596;30.466;2023-04-06T11:29:29;4.40;;;2.10;;
63882;SDS011;50047;50.596;30.466;2023-04-06T11:34:29;5.40;;;2.90;;
63882;SDS011;50047;50.596;30.466;2023-04-06T11:37:00;7.00;;;3.30;;
63882;SDS011;50047;50.596;30.466;2023-04-06T11:39:31;5.90;;;3.30;;
63882;SDS011;50047;50.596;30.466;2023-04-06T11:42:01;5.20;;;2.60;;
63882;SDS011;50047;50.596;30.466;2023-04-06T11:44:37;4.40;;;2.60;;
63882;SDS011;50047;50.596;30.466;2023-04-06T11:47:11;7.50;;;3.40;;
63882;SDS011;50047;50.596;30.466;2023-04-06T11:49:43;5.90;;;3.40;;
63882;SDS011;50047;50.596;30.466;2023-04-06T11:52:19;7.20;;;3.40;;
63882;SDS011;50047;50.596;30.466;2023-04-06T11:54:53;5.10;;;2.70;;
63882;SDS011;50047;50.596;30.466;2023-04-06T11:57:24;5.50;;;2.90;;
63882;SDS011;50047;50.596;30.466;2023-04-06T11:59:54;9.00;;;3.40;;
63882;SDS011;50047;50.596;30.466;2023-04-06T12:02:23;5.70;;;4.10;;
63882;SDS011;50047;50.596;30.466;2023-04-06T12:04:52;6.50;;;3.70;;
63882;SDS011;50047;50.596;30.466;2023-04-06T12:07:21;7.90;;;4.10;;
63882;SDS011;50047;50.596;30.466;2023-04-06T12:09:49;4.20;;;2.20;;
63882;SDS011;50047;50.596;30.466;2023-04-06T12:12:18;4.70;;;2.70;;
63882;SDS011;50047;50.596;30.466;2023-04-06T12:14:47;5.10;;;3.20;;
63882;SDS011;50047;50.596;30.466;2023-04-06T12:17:15;5.30;;;3.80;;
63882;SDS011;50047;50.596;30.466;2023-04-06T12:19:44;5.20;;;3.20;;
63882;SDS011;50047;50.596;30.466;2023-04-06T12:22:12;5.90;;;3.50;;
63882;SDS011;50047;50.596;30.466;2023-04-06T12:24:41;3.80;;;1.90;;
63882;SDS011;50047;50.596;30.466;2023-04-06T12:27:09;6.10;;;2.80;;
63882;SDS011;50047;50.596;30.466;2023-04-06T12:29:40;6.20;;;3.70;;
63882;SDS011;50047;50.596;30.466;2023-04-06T12:32:10;7.20;;;3.60;;
63882;SDS011;50047;50.596;30.466;2023-04-06T12:34:40;6.10;;;3.80;;
63882;SDS011;50047;50.596;30.466;2023-04-06T12:37:08;9.00;;;4.50;;
63882;SDS011;50047;50.596;30.466;2023-04-06T12:39:42;6.50;;;2.90;;
63882;SDS011;50047;50.596;30.466;2023-04-06T12:42:12;5.90;;;3.50;;
63882;SDS011;50047;50.596;30.466;2023-04-06T12:44:41;7.50;;;3.80;;
63882;SDS011;50047;50.596;30.466;2023-04-06T12:47:10;5.30;;;3.60;;
63882;SDS011;50047;50.596;30.466;2023-04-06T12:49:39;5.60;;;3.50;;
63882;SDS011;50047;50.596;30.466;2023-04-06T12:52:14;5.10;;;3.40;;
63882;SDS011;50047;50.596;30.466;2023-04-06T12:54:42;4.60;;;2.00;;
63882;SDS011;50047;50.596;30.466;2023-04-06T12:57:11;8.60;;;2.40;;
63882;SDS011;50047;50.596;30.466;2023-04-06T12:59:45;4.80;;;2.60;;
63882;SDS011;50047;50.596;30.466;2023-04-06T13:02:14;6.40;;;3.00;;
63882;SDS011;50047;50.596;30.466;2023-04-06T13:04:42;5.70;;;3.20;;
63882;SDS011;50047;50.596;30.466;2023-04-06T13:07:11;4.80;;;1.90;;
63882;SDS011;50047;50.596;30.466;2023-04-06T13:09:40;3.80;;;2.00;;
63882;SDS011;50047;50.596;30.466;2023-04-06T13:12:08;4.40;;;2.20;;
63882;SDS011;50047;50.596;30.466;2023-04-06T13:14:36;4.50;;;2.80;;
63882;SDS011;50047;50.596;30.466;2023-04-06T13:17:05;4.80;;;2.50;;
63882;SDS011;50047;50.596;30.466;2023-04-06T13:19:34;6.50;;;3.20;;
63882;SDS011;50047;50.596;30.466;2023-04-06T13:22:02;4.00;;;1.70;;
63882;SDS011;50047;50.596;30.466;2023-04-06T13:24:31;2.70;;;2.00;;
63882;SDS011;50047;50.596;30.466;2023-04-06T13:27:00;4.10;;;2.40;;
63882;SDS011;50047;50.596;30.466;2023-04-06T13:29:29;5.40;;;2.70;;
63882;SDS011;50047;50.596;30.466;2023-04-06T13:31:57;4.50;;;2.80;;
63882;SDS011;50047;50.596;30.466;2023-04-06T13:34:26;4.00;;;2.90;;
63882;SDS011;50047;50.596;30.466;2023-04-06T13:36:55;3.60;;;2.20;;
63882;SDS011;50047;50.596;30.466;2023-04-06T13:39:27;5.10;;;2.90;;
63882;SDS011;50047;50.596;30.466;2023-04-06T13:41:55;9.10;;;3.60;;
63882;SDS011;50047;50.596;30.466;2023-04-06T13:44:24;6.50;;;3.40;;
63882;SDS011;50047;50.596;30.466;2023-04-06T13:46:53;5.90;;;3.30;;
63882;SDS011;50047;50.596;30.466;2023-04-06T13:49:22;6.30;;;3.30;;
63882;SDS011;50047;50.596;30.466;2023-04-06T13:51:54;3.90;;;2.30;;
63882;SDS011;50047;50.596;30.466;2023-04-06T13:54:23;8.50;;;3.40;;
63882;SDS011;50047;50.596;30.466;2023-04-06T13:56:51;7.00;;;3.70;;
63882;SDS011;50047;50.596;30.466;2023-04-06T13:59:20;6.90;;;3.50;;
63882;SDS011;50047;50.596;30.466;2023-04-06T14:01:49;6.70;;;4.00;;
63882;SDS011;50047;50.596;30.466;2023-04-06T14:04:18;5.40;;;3.20;;
63882;SDS011;50047;50.596;30.466;2023-04-06T14:06:47;4.10;;;2.60;;
63882;SDS011;50047;50.596;30.466;2023-04-06T14:09:16;7.80;;;3.10;;
63882;SDS011;50047;50.596;30.466;2023-04-06T14:11:47;6.50;;;4.20;;
63882;SDS011;50047;50.596;30.466;2023-04-06T14:14:16;8.50;;;4.20;;
63882;SDS011;50047;50.596;30.466;2023-04-06T14:16:46;7.50;;;4.50;;
63882;SDS011;50047;50.596;30.466;2023-04-06T14:19:15;9.60;;;5.10;;
63882;SDS011;50047;50.596;30.466;2023-04-06T14:21:48;5.20;;;3.00;;
63882;SDS011;50047;50.596;30.466;2023-04-06T14:24:17;8.90;;;3.80;;
63882;SDS011;50047;50.596;30.466;2023-04-06T14:26:45;7.30;;;4.20;;
63882;SDS011;50047;50.596;30.466;2023-04-06T14:29:15;10.60;;;4.10;;
63882;SDS011;50047;50.596;30.466;2023-04-06T14:31:45;9.40;;;4.70;;
63882;SDS011;50047;50.596;30.466;2023-04-06T14:34:14;7.40;;;3.20;;
63882;SDS011;50047;50.596;30.466;2023-04-06T14:36:45;7.30;;;3.50;;
63882;SDS011;50047;50.596;30.466;2023-04-06T14:39:14;7.70;;;4.30;;
63882;SDS011;50047;50.596;30.466;2023-04-06T14:41:43;11.20;;;4.50;;
63882;SDS011;50047;50.596;30.466;2023-04-06T14:44:12;9.20;;;4.90;;
63882;SDS011;50047;50.596;30.466;2023-04-06T14:46:44;8.90;;;4.80;;
63882;SDS011;50047;50.596;30.466;2023-04-06T14:49:13;6.80;;;2.70;;
63882;SDS011;50047;50.596;30.466;2023-04-06T14:51:44;5.40;;;3.00;;
63882;SDS011;50047;50.596;30.466;2023-04-06T14:54:12;7.30;;;3.90;;
63882;SDS011;50047;50.596;30.466;2023-04-06T14:56:40;8.10;;;4.40;;
63882;SDS011;50047;50.596;30.466;2023-04-06T14:59:10;6.30;;;4.00;;
63882;SDS011;50047;50.596;30.466;2023-04-06T15:01:39;8.40;;;4.60;;
63882;SDS011;50047;50.596;30.466;2023-04-06T15:04:08;5.60;;;2.70;;
63882;SDS011;50047;50.596;30.466;2023-04-06T15:06:38;7.20;;;3.30;;
63882;SDS011;50047;50.596;30.466;2023-04-06T15:09:06;9.60;;;4.70;;
63882;SDS011;50047;50.596;30.466;2023-04-06T15:11:35;11.00;;;4.70;;
63882;SDS011;50047;50.596;30.466;2023-04-06T15:14:03;7.40;;;4.80;;